sensor_id;sensor_type;location;lat;lon;timestamp;P1;durP1;ratioP1;P2;durP2;ratioP2
5754;SDS011;2902;42.130;24.732;2024-01-10T00:02:20;25.53;;;17.03;;
5754;SDS011;2902;42.130;24.732;2024-01-10T00:04:47;26.40;;;16.77;;
5754;SDS011;2902;42.130;24.732;2024-01-10T00:07:15;28.63;;;17.40;;
5754;SDS011;2902;42.130;24.732;2024-01-10T00:09:41;26.23;;;17.13;;
5754;SDS011;2902;42.130;24.732;2024-01-10T00:12:08;25.13;;;16.57;;
5754;SDS011;2902;42.130;24.732;2024-01-10T00:14:35;29.57;;;18.63;;
5754;SDS011;2902;42.130;24.732;2024-01-10T00:17:01;25.67;;;17.87;;
5754;SDS011;2902;42.130;24.732;2024-01-10T00:19:28;24.87;;;15.93;;
5754;SDS011;2902;42.130;24.732;2024-01-10T00:21:55;23.67;;;15.27;;
5754;SDS011;2902;42.130;24.732;2024-01-10T00:24:23;24.33;;;15.33;;
5754;SDS011;2902;42.130;24.732;2024-01-10T00:26:50;21.33;;;14.23;;
5754;SDS011;2902;42.130;24.732;2024-01-10T00:29:17;23.00;;;15.87;;
5754;SDS011;2902;42.130;24.732;2024-01-10T00:31:43;31.07;;;17.83;;
5754;SDS011;2902;42.130;24.732;2024-01-10T00:34:10;29.03;;;18.93;;
5754;SDS011;2902;42.130;24.732;2024-01-10T00:36:37;25.30;;;15.80;;
5754;SDS011;2902;42.130;24.732;2024-01-10T00:39:04;19.03;;;14.70;;
5754;SDS011;2902;42.130;24.732;2024-01-10T00:41:32;24.30;;;14.57;;
5754;SDS011;2902;42.130;24.732;2024-01-10T00:43:59;21.73;;;14.83;;
5754;SDS011;2902;42.130;24.732;2024-01-10T00:46:26;21.67;;;15.30;;
5754;SDS011;2902;42.130;24.732;2024-01-10T00:48:52;21.43;;;16.00;;
5754;SDS011;2902;42.130;24.732;2024-01-10T00:51:19;26.67;;;17.03;;
5754;SDS011;2902;42.130;24.732;2024-01-10T00:53:46;23.50;;;17.27;;
5754;SDS011;2902;42.130;24.732;2024-01-10T00:56:13;21.87;;;16.60;;
5754;SDS011;2902;42.130;24.732;2024-01-10T00:58:41;24.87;;;18.23;;
5754;SDS011;2902;42.130;24.732;2024-01-10T01:01:07;29.43;;;17.87;;
5754;SDS011;2902;42.130;24.732;2024-01-10T01:03:34;28.33;;;18.20;;
5754;SDS011;2902;42.130;24.732;2024-01-10T01:06:01;27.37;;;18.57;;
5754;SDS011;2902;42.130;24.732;2024-01-10T01:08:28;26.33;;;18.47;;
5754;SDS011;2902;42.130;24.732;2024-01-10T01:10:54;26.17;;;17.67;;
5754;SDS011;2902;42.130;24.732;2024-01-10T01:13:21;25.10;;;18.30;;
5754;SDS011;2902;42.130;24.732;2024-01-10T01:15:49;25.07;;;18.03;;
5754;SDS011;2902;42.130;24.732;2024-01-10T01:18:16;25.03;;;17.57;;
5754;SDS011;2902;42.130;24.732;2024-01-10T01:20:44;25.57;;;17.47;;
5754;SDS011;2902;42.130;24.732;2024-01-10T01:23:13;22.90;;;16.00;;
5754;SDS011;2902;42.130;24.732;2024-01-10T01:25:40;24.50;;;17.10;;
5754;SDS011;2902;42.130;24.732;2024-01-10T01:28:07;22.33;;;16.50;;
5754;SDS011;2902;42.130;24.732;2024-01-10T01:30:34;22.60;;;16.60;;
5754;SDS011;2902;42.130;24.732;2024-01-10T01:33:02;23.90;;;18.07;;
5754;SDS011;2902;42.130;24.732;2024-01-10T01:35:29;25.37;;;17.63;;
5754;SDS011;2902;42.130;24.732;2024-01-10T01:37:56;23.57;;;17.50;;
5754;SDS011;2902;42.130;24.732;2024-01-10T01:40:23;23.27;;;16.67;;
5754;SDS011;2902;42.130;24.732;2024-01-10T01:42:50;21.33;;;16.10;;
5754;SDS011;2902;42.130;24.732;2024-01-10T01:45:16;28.10;;;16.87;;
5754;SDS011;2902;42.130;24.732;2024-01-10T01:47:43;22.50;;;16.83;;
5754;SDS011;2902;42.130;24.732;2024-01-10T01:50:12;40.67;;;22.73;;
5754;SDS011;2902;42.130;24.732;2024-01-10T01:52:39;96.93;;;41.93;;
5754;SDS011;2902;42.130;24.732;2024-01-10T01:55:06;43.20;;;23.93;;
5754;SDS011;2902;42.130;24.732;2024-01-10T01:57:34;44.03;;;24.23;;
5754;SDS011;2902;42.130;24.732;2024-01-10T02:00:01;30.67;;;18.40;;
5754;SDS011;2902;42.130;24.732;2024-01-10T02:02:29;28.03;;;19.80;;
5754;SDS011;2902;42.130;24.732;2024-01-10T02:04:57;27.93;;;18.10;;
5754;SDS011;2902;42.130;24.732;2024-01-10T02:07:26;25.13;;;18.57;;
5754;SDS011;2902;42.130;24.732;2024-01-10T02:09:53;23.63;;;16.93;;
5754;SDS011;2902;42.130;24.732;2024-01-10T02:12:20;23.27;;;16.03;;
5754;SDS011;2902;42.130;24.732;2024-01-10T02:14:47;20.17;;;15.57;;
5754;SDS011;2902;42.130;24.732;2024-01-10T02:17:14;18.80;;;14.83;;
5754;SDS011;2902;42.130;24.732;2024-01-10T02:19:41;20.43;;;16.20;;
5754;SDS011;2902;42.130;24.732;2024-01-10T02:22:08;20.97;;;15.77;;
5754;SDS011;2902;42.130;24.732;2024-01-10T02:24:37;20.57;;;16.63;;
5754;SDS011;2902;42.130;24.732;2024-01-10T02:27:05;18.20;;;15.07;;
5754;SDS011;2902;42.130;24.732;2024-01-10T02:29:33;20.80;;;15.03;;
5754;SDS011;2902;42.130;24.732;2024-01-10T02:32:00;20.53;;;15.50;;
5754;SDS011;2902;42.130;24.732;2024-01-10T02:34:28;16.80;;;14.20;;
5754;SDS011;2902;42.130;24.732;2024-01-10T02:36:56;19.07;;;14.73;;
5754;SDS011;2902;42.130;24.732;2024-01-10T02:39:23;19.97;;;14.87;;
5754;SDS011;2902;42.130;24.732;2024-01-10T02:41:49;20.67;;;16.07;;
5754;SDS011;2902;42.130;24.732;2024-01-10T02:44:18;19.27;;;14.93;;
5754;SDS011;2902;42.130;24.732;2024-01-10T02:46:44;20.87;;;15.13;;
5754;SDS011;2902;42.130;24.732;2024-01-10T02:49:11;21.07;;;15.47;;
5754;SDS011;2902;42.130;24.732;2024-01-10T02:51:38;22.63;;;16.40;;
5754;SDS011;2902;42.130;24.732;2024-01-10T02:54:04;20.50;;;15.60;;
5754;SDS011;2902;42.130;24.732;2024-01-10T02:56:31;19.60;;;14.43;;
5754;SDS011;2902;42.130;24.732;2024-01-10T02:58:58;21.20;;;14.87;;
5754;SDS011;2902;42.130;24.732;2024-01-10T03:01:26;18.40;;;14.77;;
5754;SDS011;2902;42.130;24.732;2024-01-10T03:03:53;19.50;;;15.20;;
5754;SDS011;2902;42.130;24.732;2024-01-10T03:06:19;20.80;;;15.10;;
5754;SDS011;2902;42.130;24.732;2024-01-10T03:08:46;21.13;;;14.87;;
5754;SDS011;2902;42.130;24.732;2024-01-10T03:11:13;17.93;;;14.00;;
5754;SDS011;2902;42.130;24.732;2024-01-10T03:13:39;16.20;;;12.70;;
5754;SDS011;2902;42.130;24.732;2024-01-10T03:16:06;15.90;;;12.90;;
5754;SDS011;2902;42.130;24.732;2024-01-10T03:18:34;17.70;;;12.47;;
5754;SDS011;2902;42.130;24.732;2024-01-10T03:21:01;14.27;;;12.13;;
5754;SDS011;2902;42.130;24.732;2024-01-10T03:23:27;12.97;;;11.63;;
5754;SDS011;2902;42.130;24.732;2024-01-10T03:25:55;12.43;;;11.23;;
5754;SDS011;2902;42.130;24.732;2024-01-10T03:28:22;12.90;;;11.63;;
5754;SDS011;2902;42.130;24.732;2024-01-10T03:30:49;16.10;;;12.27;;
5754;SDS011;2902;42.130;24.732;2024-01-10T03:33:16;19.60;;;11.77;;
5754;SDS011;2902;42.130;24.732;2024-01-10T03:35:44;15.90;;;11.33;;
5754;SDS011;2902;42.130;24.732;2024-01-10T03:38:11;22.23;;;13.10;;
5754;SDS011;2902;42.130;24.732;2024-01-10T03:40:37;19.50;;;13.33;;
5754;SDS011;2902;42.130;24.732;2024-01-10T03:43:04;16.80;;;12.20;;
5754;SDS011;2902;42.130;24.732;2024-01-10T03:45:31;19.30;;;13.57;;
5754;SDS011;2902;42.130;24.732;2024-01-10T03:47:58;13.73;;;12.27;;
5754;SDS011;2902;42.130;24.732;2024-01-10T03:50:25;21.00;;;13.70;;
5754;SDS011;2902;42.130;24.732;2024-01-10T03:52:53;22.23;;;15.40;;
5754;SDS011;2902;42.130;24.732;2024-01-10T03:55:20;19.97;;;14.67;;
5754;SDS011;2902;42.130;24.732;2024-01-10T03:57:47;20.87;;;14.13;;
5754;SDS011;2902;42.130;24.732;2024-01-10T04:00:13;21.07;;;13.70;;
5754;SDS011;2902;42.130;24.732;2024-01-10T04:02:40;18.43;;;14.10;;
5754;SDS011;2902;42.130;24.732;2024-01-10T04:05:07;19.67;;;14.90;;
5754;SDS011;2902;42.130;24.732;2024-01-10T04:07:37;19.40;;;14.20;;
5754;SDS011;2902;42.130;24.732;2024-01-10T04:10:08;17.50;;;14.47;;
5754;SDS011;2902;42.130;24.732;2024-01-10T04:12:35;23.40;;;15.77;;
5754;SDS011;2902;42.130;24.732;2024-01-10T04:15:02;21.33;;;15.17;;
5754;SDS011;2902;42.130;24.732;2024-01-10T04:17:30;20.20;;;15.03;;
5754;SDS011;2902;42.130;24.732;2024-01-10T04:19:57;20.57;;;16.10;;
5754;SDS011;2902;42.130;24.732;2024-01-10T04:22:23;22.53;;;16.43;;
5754;SDS011;2902;42.130;24.732;2024-01-10T04:24:50;20.20;;;15.30;;
5754;SDS011;2902;42.130;24.732;2024-01-10T04:27:19;28.33;;;17.97;;
5754;SDS011;2902;42.130;24.732;2024-01-10T04:29:45;25.43;;;16.00;;
5754;SDS011;2902;42.130;24.732;2024-01-10T04:32:12;23.10;;;16.63;;
5754;SDS011;2902;42.130;24.732;2024-01-10T04:34:39;21.63;;;15.00;;
5754;SDS011;2902;42.130;24.732;2024-01-10T04:37:06;22.50;;;15.50;;
5754;SDS011;2902;42.130;24.732;2024-01-10T04:39:33;19.10;;;15.20;;
5754;SDS011;2902;42.130;24.732;2024-01-10T04:42:00;23.60;;;15.10;;
5754;SDS011;2902;42.130;24.732;2024-01-10T04:44:28;17.93;;;14.37;;
5754;SDS011;2902;42.130;24.732;2024-01-10T04:46:55;21.00;;;13.73;;
5754;SDS011;2902;42.130;24.732;2024-01-10T04:49:22;17.67;;;14.33;;
5754;SDS011;2902;42.130;24.732;2024-01-10T04:51:49;19.23;;;14.07;;
5754;SDS011;2902;42.130;24.732;2024-01-10T04:54:16;17.07;;;13.70;;
5754;SDS011;2902;42.130;24.732;2024-01-10T04:56:43;18.57;;;13.93;;
5754;SDS011;2902;42.130;24.732;2024-01-10T04:59:09;18.93;;;13.87;;
5754;SDS011;2902;42.130;24.732;2024-01-10T05:01:38;19.93;;;13.87;;
5754;SDS011;2902;42.130;24.732;2024-01-10T05:04:04;21.40;;;13.80;;
5754;SDS011;2902;42.130;24.732;2024-01-10T05:06:31;19.60;;;13.80;;
5754;SDS011;2902;42.130;24.732;2024-01-10T05:08:58;27.10;;;15.27;;
5754;SDS011;2902;42.130;24.732;2024-01-10T05:11:25;21.53;;;14.60;;
5754;SDS011;2902;42.130;24.732;2024-01-10T05:13:52;19.73;;;13.40;;
5754;SDS011;2902;42.130;24.732;2024-01-10T05:16:18;24.27;;;14.43;;
5754;SDS011;2902;42.130;24.732;2024-01-10T05:18:46;18.23;;;13.33;;
5754;SDS011;2902;42.130;24.732;2024-01-10T05:21:13;18.17;;;13.83;;
5754;SDS011;2902;42.130;24.732;2024-01-10T05:23:40;27.80;;;15.73;;
5754;SDS011;2902;42.130;24.732;2024-01-10T05:26:06;18.07;;;14.00;;
5754;SDS011;2902;42.130;24.732;2024-01-10T05:28:33;21.10;;;15.30;;
5754;SDS011;2902;42.130;24.732;2024-01-10T05:31:00;18.77;;;14.50;;
5754;SDS011;2902;42.130;24.732;2024-01-10T05:33:27;23.40;;;14.67;;
5754;SDS011;2902;42.130;24.732;2024-01-10T05:35:55;18.87;;;13.90;;
5754;SDS011;2902;42.130;24.732;2024-01-10T05:38:23;26.73;;;15.90;;
5754;SDS011;2902;42.130;24.732;2024-01-10T05:40:50;28.40;;;16.67;;
5754;SDS011;2902;42.130;24.732;2024-01-10T05:43:17;29.93;;;17.07;;
5754;SDS011;2902;42.130;24.732;2024-01-10T05:45:43;27.50;;;18.53;;
5754;SDS011;2902;42.130;24.732;2024-01-10T05:48:10;30.33;;;18.03;;
5754;SDS011;2902;42.130;24.732;2024-01-10T05:50:37;24.07;;;16.80;;
5754;SDS011;2902;42.130;24.732;2024-01-10T05:53:05;27.37;;;17.60;;
5754;SDS011;2902;42.130;24.732;2024-01-10T05:55:33;27.93;;;17.30;;
5754;SDS011;2902;42.130;24.732;2024-01-10T05:58:01;36.70;;;19.63;;
5754;SDS011;2902;42.130;24.732;2024-01-10T06:00:28;26.67;;;18.63;;
5754;SDS011;2902;42.130;24.732;2024-01-10T06:02:55;33.60;;;18.80;;
5754;SDS011;2902;42.130;24.732;2024-01-10T06:05:22;35.50;;;18.70;;
5754;SDS011;2902;42.130;24.732;2024-01-10T06:07:48;29.13;;;19.80;;
5754;SDS011;2902;42.130;24.732;2024-01-10T06:10:16;65.07;;;36.90;;
5754;SDS011;2902;42.130;24.732;2024-01-10T06:12:43;58.43;;;32.43;;
5754;SDS011;2902;42.130;24.732;2024-01-10T06:15:10;46.70;;;30.30;;
5754;SDS011;2902;42.130;24.732;2024-01-10T06:17:37;38.13;;;24.93;;
5754;SDS011;2902;42.130;24.732;2024-01-10T06:20:04;39.80;;;23.97;;
5754;SDS011;2902;42.130;24.732;2024-01-10T06:22:32;36.10;;;23.37;;
5754;SDS011;2902;42.130;24.732;2024-01-10T06:24:58;37.10;;;23.50;;
5754;SDS011;2902;42.130;24.732;2024-01-10T06:27:26;44.27;;;23.90;;
5754;SDS011;2902;42.130;24.732;2024-01-10T06:29:55;41.67;;;25.10;;
5754;SDS011;2902;42.130;24.732;2024-01-10T06:32:22;62.23;;;37.00;;
5754;SDS011;2902;42.130;24.732;2024-01-10T06:34:48;35.60;;;24.30;;
5754;SDS011;2902;42.130;24.732;2024-01-10T06:37:15;54.17;;;28.27;;
5754;SDS011;2902;42.130;24.732;2024-01-10T06:39:42;81.57;;;40.40;;
5754;SDS011;2902;42.130;24.732;2024-01-10T06:42:09;66.77;;;38.57;;
5754;SDS011;2902;42.130;24.732;2024-01-10T06:44:38;59.13;;;34.87;;
5754;SDS011;2902;42.130;24.732;2024-01-10T06:47:05;52.13;;;30.67;;
5754;SDS011;2902;42.130;24.732;2024-01-10T06:49:32;58.17;;;31.47;;
5754;SDS011;2902;42.130;24.732;2024-01-10T06:51:59;66.00;;;34.80;;
5754;SDS011;2902;42.130;24.732;2024-01-10T06:54:26;57.33;;;33.87;;
5754;SDS011;2902;42.130;24.732;2024-01-10T06:56:53;43.53;;;24.23;;
5754;SDS011;2902;42.130;24.732;2024-01-10T06:59:19;39.57;;;23.23;;
5754;SDS011;2902;42.130;24.732;2024-01-10T07:01:52;46.27;;;30.93;;
5754;SDS011;2902;42.130;24.732;2024-01-10T07:04:21;48.70;;;26.23;;
5754;SDS011;2902;42.130;24.732;2024-01-10T07:06:49;38.93;;;24.13;;
5754;SDS011;2902;42.130;24.732;2024-01-10T07:09:16;36.60;;;22.73;;
5754;SDS011;2902;42.130;24.732;2024-01-10T07:11:44;36.73;;;23.37;;
5754;SDS011;2902;42.130;24.732;2024-01-10T07:14:12;34.10;;;21.77;;
5754;SDS011;2902;42.130;24.732;2024-01-10T07:16:39;36.57;;;22.17;;
5754;SDS011;2902;42.130;24.732;2024-01-10T07:19:09;38.73;;;20.50;;
5754;SDS011;2902;42.130;24.732;2024-01-10T07:21:38;40.20;;;22.50;;
5754;SDS011;2902;42.130;24.732;2024-01-10T07:24:05;37.00;;;21.47;;
5754;SDS011;2902;42.130;24.732;2024-01-10T07:26:33;42.80;;;24.87;;
5754;SDS011;2902;42.130;24.732;2024-01-10T07:29:00;36.57;;;21.40;;
5754;SDS011;2902;42.130;24.732;2024-01-10T07:31:27;41.47;;;22.37;;
5754;SDS011;2902;42.130;24.732;2024-01-10T07:33:55;31.90;;;20.97;;
5754;SDS011;2902;42.130;24.732;2024-01-10T07:36:23;34.97;;;23.03;;
5754;SDS011;2902;42.130;24.732;2024-01-10T07:38:51;28.37;;;20.27;;
5754;SDS011;2902;42.130;24.732;2024-01-10T07:41:18;25.63;;;18.23;;
5754;SDS011;2902;42.130;24.732;2024-01-10T07:43:45;29.70;;;18.80;;
5754;SDS011;2902;42.130;24.732;2024-01-10T07:46:12;36.37;;;20.03;;
5754;SDS011;2902;42.130;24.732;2024-01-10T07:48:38;50.13;;;24.80;;
5754;SDS011;2902;42.130;24.732;2024-01-10T07:51:05;41.57;;;24.33;;
5754;SDS011;2902;42.130;24.732;2024-01-10T07:53:33;32.80;;;21.77;;
5754;SDS011;2902;42.130;24.732;2024-01-10T07:56:01;32.50;;;21.40;;
5754;SDS011;2902;42.130;24.732;2024-01-10T07:58:28;24.73;;;18.90;;
5754;SDS011;2902;42.130;24.732;2024-01-10T08:00:54;29.80;;;19.63;;
5754;SDS011;2902;42.130;24.732;2024-01-10T08:03:21;27.33;;;18.43;;
5754;SDS011;2902;42.130;24.732;2024-01-10T08:05:48;28.37;;;19.30;;
5754;SDS011;2902;42.130;24.732;2024-01-10T08:08:14;24.80;;;17.90;;
5754;SDS011;2902;42.130;24.732;2024-01-10T08:10:43;30.47;;;18.83;;
5754;SDS011;2902;42.130;24.732;2024-01-10T08:13:10;26.13;;;18.27;;
5754;SDS011;2902;42.130;24.732;2024-01-10T08:15:37;22.90;;;18.00;;
5754;SDS011;2902;42.130;24.732;2024-01-10T08:18:03;25.33;;;17.77;;
5754;SDS011;2902;42.130;24.732;2024-01-10T08:20:32;25.77;;;16.30;;
5754;SDS011;2902;42.130;24.732;2024-01-10T08:22:59;23.87;;;15.27;;
5754;SDS011;2902;42.130;24.732;2024-01-10T08:25:26;26.47;;;19.60;;
5754;SDS011;2902;42.130;24.732;2024-01-10T08:27:54;25.07;;;18.43;;
5754;SDS011;2902;42.130;24.732;2024-01-10T08:30:22;23.37;;;20.57;;
5754;SDS011;2902;42.130;24.732;2024-01-10T08:32:49;18.50;;;16.37;;
5754;SDS011;2902;42.130;24.732;2024-01-10T08:35:16;19.07;;;13.93;;
5754;SDS011;2902;42.130;24.732;2024-01-10T08:37:44;15.57;;;13.73;;
5754;SDS011;2902;42.130;24.732;2024-01-10T08:40:11;31.97;;;20.63;;
5754;SDS011;2902;42.130;24.732;2024-01-10T08:42:40;24.50;;;17.33;;
5754;SDS011;2902;42.130;24.732;2024-01-10T08:45:08;21.43;;;16.13;;
5754;SDS011;2902;42.130;24.732;2024-01-10T08:47:36;17.13;;;12.87;;
5754;SDS011;2902;42.130;24.732;2024-01-10T08:50:04;19.77;;;13.93;;
5754;SDS011;2902;42.130;24.732;2024-01-10T08:52:33;20.90;;;13.43;;
5754;SDS011;2902;42.130;24.732;2024-01-10T08:55:02;19.07;;;14.00;;
5754;SDS011;2902;42.130;24.732;2024-01-10T08:57:30;21.77;;;15.30;;
5754;SDS011;2902;42.130;24.732;2024-01-10T08:59:56;21.43;;;16.00;;
5754;SDS011;2902;42.130;24.732;2024-01-10T09:02:25;27.17;;;16.80;;
5754;SDS011;2902;42.130;24.732;2024-01-10T09:04:52;20.77;;;15.73;;
5754;SDS011;2902;42.130;24.732;2024-01-10T09:07:19;23.00;;;17.73;;
5754;SDS011;2902;42.130;24.732;2024-01-10T09:09:46;24.07;;;16.10;;
5754;SDS011;2902;42.130;24.732;2024-01-10T09:12:13;20.97;;;16.57;;
5754;SDS011;2902;42.130;24.732;2024-01-10T09:14:40;23.70;;;16.27;;
5754;SDS011;2902;42.130;24.732;2024-01-10T09:17:06;28.80;;;17.53;;
5754;SDS011;2902;42.130;24.732;2024-01-10T09:19:34;25.67;;;18.50;;
5754;SDS011;2902;42.130;24.732;2024-01-10T09:22:01;25.63;;;17.73;;
5754;SDS011;2902;42.130;24.732;2024-01-10T09:24:28;25.40;;;17.00;;
5754;SDS011;2902;42.130;24.732;2024-01-10T09:26:55;24.23;;;16.93;;
5754;SDS011;2902;42.130;24.732;2024-01-10T09:29:23;26.40;;;18.13;;
5754;SDS011;2902;42.130;24.732;2024-01-10T09:31:50;21.93;;;16.57;;
5754;SDS011;2902;42.130;24.732;2024-01-10T09:34:17;22.30;;;16.60;;
5754;SDS011;2902;42.130;24.732;2024-01-10T09:36:45;22.03;;;16.67;;
5754;SDS011;2902;42.130;24.732;2024-01-10T09:39:12;21.33;;;16.03;;
5754;SDS011;2902;42.130;24.732;2024-01-10T09:41:40;23.93;;;16.97;;
5754;SDS011;2902;42.130;24.732;2024-01-10T09:44:13;25.83;;;19.20;;
5754;SDS011;2902;42.130;24.732;2024-01-10T09:46:42;23.07;;;16.40;;
5754;SDS011;2902;42.130;24.732;2024-01-10T09:49:12;21.03;;;16.93;;
5754;SDS011;2902;42.130;24.732;2024-01-10T09:51:39;19.17;;;15.03;;
5754;SDS011;2902;42.130;24.732;2024-01-10T09:54:07;20.73;;;14.67;;
5754;SDS011;2902;42.130;24.732;2024-01-10T09:56:34;16.67;;;14.20;;
5754;SDS011;2902;42.130;24.732;2024-01-10T09:59:01;17.23;;;13.67;;
5754;SDS011;2902;42.130;24.732;2024-01-10T10:01:30;13.77;;;12.27;;
5754;SDS011;2902;42.130;24.732;2024-01-10T10:03:57;13.37;;;11.97;;
5754;SDS011;2902;42.130;24.732;2024-01-10T10:06:24;15.40;;;10.57;;
5754;SDS011;2902;42.130;24.732;2024-01-10T10:08:51;15.60;;;14.13;;
5754;SDS011;2902;42.130;24.732;2024-01-10T10:11:19;9.23;;;8.33;;
5754;SDS011;2902;42.130;24.732;2024-01-10T10:13:46;10.80;;;9.60;;
5754;SDS011;2902;42.130;24.732;2024-01-10T10:16:13;10.53;;;9.63;;
5754;SDS011;2902;42.130;24.732;2024-01-10T10:18:39;12.13;;;9.63;;
5754;SDS011;2902;42.130;24.732;2024-01-10T10:21:08;12.73;;;9.57;;
5754;SDS011;2902;42.130;24.732;2024-01-10T10:23:36;9.20;;;8.20;;
5754;SDS011;2902;42.130;24.732;2024-01-10T10:26:10;8.97;;;8.17;;
5754;SDS011;2902;42.130;24.732;2024-01-10T10:28:40;11.83;;;9.47;;
5754;SDS011;2902;42.130;24.732;2024-01-10T10:31:07;10.50;;;8.97;;
5754;SDS011;2902;42.130;24.732;2024-01-10T10:33:34;9.87;;;8.97;;
5754;SDS011;2902;42.130;24.732;2024-01-10T10:36:02;11.23;;;8.43;;
5754;SDS011;2902;42.130;24.732;2024-01-10T10:38:29;12.10;;;10.03;;
5754;SDS011;2902;42.130;24.732;2024-01-10T10:40:56;17.00;;;11.10;;
5754;SDS011;2902;42.130;24.732;2024-01-10T10:43:24;13.17;;;10.73;;
5754;SDS011;2902;42.130;24.732;2024-01-10T10:45:53;13.93;;;10.67;;
5754;SDS011;2902;42.130;24.732;2024-01-10T10:48:23;12.83;;;10.80;;
5754;SDS011;2902;42.130;24.732;2024-01-10T10:50:54;10.17;;;9.20;;
5754;SDS011;2902;42.130;24.732;2024-01-10T10:53:25;11.33;;;10.33;;
5754;SDS011;2902;42.130;24.732;2024-01-10T10:55:54;9.80;;;8.90;;
5754;SDS011;2902;42.130;24.732;2024-01-10T10:58:23;10.85;;;9.15;;
5754;SDS011;2902;42.130;24.732;2024-01-10T11:00:50;9.83;;;8.90;;
5754;SDS011;2902;42.130;24.732;2024-01-10T11:03:18;8.73;;;7.83;;
5754;SDS011;2902;42.130;24.732;2024-01-10T11:05:47;9.27;;;8.40;;
5754;SDS011;2902;42.130;24.732;2024-01-10T11:08:16;9.13;;;8.23;;
5754;SDS011;2902;42.130;24.732;2024-01-10T11:10:46;17.73;;;8.37;;
5754;SDS011;2902;42.130;24.732;2024-01-10T11:19:14;12.03;;;8.70;;
5754;SDS011;2902;42.130;24.732;2024-01-10T11:22:05;9.70;;;7.33;;
5754;SDS011;2902;42.130;24.732;2024-01-10T11:24:41;13.73;;;10.30;;
5754;SDS011;2902;42.130;24.732;2024-01-10T11:27:10;28.20;;;12.50;;
5754;SDS011;2902;42.130;24.732;2024-01-10T11:29:38;14.73;;;11.00;;
5754;SDS011;2902;42.130;24.732;2024-01-10T11:32:05;11.67;;;10.60;;
5754;SDS011;2902;42.130;24.732;2024-01-10T11:34:36;10.33;;;8.87;;
5754;SDS011;2902;42.130;24.732;2024-01-10T11:37:09;12.00;;;9.87;;
5754;SDS011;2902;42.130;24.732;2024-01-10T11:39:36;10.53;;;9.43;;
5754;SDS011;2902;42.130;24.732;2024-01-10T11:42:04;15.57;;;9.57;;
5754;SDS011;2902;42.130;24.732;2024-01-10T11:44:31;9.30;;;8.37;;
5754;SDS011;2902;42.130;24.732;2024-01-10T11:46:58;10.17;;;8.43;;
5754;SDS011;2902;42.130;24.732;2024-01-10T11:49:26;10.97;;;9.87;;
5754;SDS011;2902;42.130;24.732;2024-01-10T11:51:54;11.47;;;9.60;;
5754;SDS011;2902;42.130;24.732;2024-01-10T11:54:35;14.73;;;10.97;;
5754;SDS011;2902;42.130;24.732;2024-01-10T11:57:11;14.93;;;9.00;;
5754;SDS011;2902;42.130;24.732;2024-01-10T11:59:40;13.23;;;9.60;;
5754;SDS011;2902;42.130;24.732;2024-01-10T12:02:09;12.47;;;9.77;;
5754;SDS011;2902;42.130;24.732;2024-01-10T12:04:37;10.00;;;8.90;;
5754;SDS011;2902;42.130;24.732;2024-01-10T12:07:06;8.87;;;8.07;;
5754;SDS011;2902;42.130;24.732;2024-01-10T12:09:33;9.53;;;8.67;;
5754;SDS011;2902;42.130;24.732;2024-01-10T12:12:00;14.00;;;8.97;;
5754;SDS011;2902;42.130;24.732;2024-01-10T12:14:27;12.53;;;8.97;;
5754;SDS011;2902;42.130;24.732;2024-01-10T12:16:55;19.40;;;9.13;;
5754;SDS011;2902;42.130;24.732;2024-01-10T12:19:22;21.53;;;9.70;;
5754;SDS011;2902;42.130;24.732;2024-01-10T12:21:49;10.57;;;7.43;;
5754;SDS011;2902;42.130;24.732;2024-01-10T12:24:17;11.87;;;9.20;;
5754;SDS011;2902;42.130;24.732;2024-01-10T12:26:44;9.13;;;8.27;;
5754;SDS011;2902;42.130;24.732;2024-01-10T12:29:11;8.43;;;7.67;;
5754;SDS011;2902;42.130;24.732;2024-01-10T12:31:37;10.20;;;7.20;;
5754;SDS011;2902;42.130;24.732;2024-01-10T12:34:06;8.63;;;7.73;;
5754;SDS011;2902;42.130;24.732;2024-01-10T12:36:34;8.37;;;7.50;;
5754;SDS011;2902;42.130;24.732;2024-01-10T12:39:01;10.77;;;7.53;;
5754;SDS011;2902;42.130;24.732;2024-01-10T12:41:29;8.77;;;7.87;;
5754;SDS011;2902;42.130;24.732;2024-01-10T12:43:56;8.43;;;7.73;;
5754;SDS011;2902;42.130;24.732;2024-01-10T12:46:28;9.87;;;7.90;;
5754;SDS011;2902;42.130;24.732;2024-01-10T12:48:58;8.67;;;7.80;;
5754;SDS011;2902;42.130;24.732;2024-01-10T12:51:26;8.40;;;7.70;;
5754;SDS011;2902;42.130;24.732;2024-01-10T12:53:54;12.20;;;8.57;;
5754;SDS011;2902;42.130;24.732;2024-01-10T12:56:21;17.57;;;8.93;;
5754;SDS011;2902;42.130;24.732;2024-01-10T12:58:49;11.53;;;8.80;;
5754;SDS011;2902;42.130;24.732;2024-01-10T13:01:16;11.70;;;8.77;;
5754;SDS011;2902;42.130;24.732;2024-01-10T13:03:43;12.57;;;8.73;;
5754;SDS011;2902;42.130;24.732;2024-01-10T13:06:10;9.90;;;8.73;;
5754;SDS011;2902;42.130;24.732;2024-01-10T13:08:36;11.63;;;9.60;;
5754;SDS011;2902;42.130;24.732;2024-01-10T13:11:03;9.77;;;8.80;;
5754;SDS011;2902;42.130;24.732;2024-01-10T13:13:33;11.37;;;8.80;;
5754;SDS011;2902;42.130;24.732;2024-01-10T13:16:01;25.40;;;9.60;;
5754;SDS011;2902;42.130;24.732;2024-01-10T13:18:28;12.00;;;9.23;;
5754;SDS011;2902;42.130;24.732;2024-01-10T13:20:55;16.33;;;10.03;;
5754;SDS011;2902;42.130;24.732;2024-01-10T13:23:22;15.80;;;9.97;;
5754;SDS011;2902;42.130;24.732;2024-01-10T13:25:49;15.50;;;9.53;;
5754;SDS011;2902;42.130;24.732;2024-01-10T13:28:16;17.93;;;9.43;;
5754;SDS011;2902;42.130;24.732;2024-01-10T13:30:44;22.47;;;9.87;;
5754;SDS011;2902;42.130;24.732;2024-01-10T13:33:13;11.27;;;8.93;;
5754;SDS011;2902;42.130;24.732;2024-01-10T13:35:40;19.43;;;9.77;;
5754;SDS011;2902;42.130;24.732;2024-01-10T13:38:06;10.57;;;8.40;;
5754;SDS011;2902;42.130;24.732;2024-01-10T13:40:35;10.10;;;9.10;;
5754;SDS011;2902;42.130;24.732;2024-01-10T13:43:02;9.77;;;8.87;;
5754;SDS011;2902;42.130;24.732;2024-01-10T13:45:29;13.93;;;8.87;;
5754;SDS011;2902;42.130;24.732;2024-01-10T13:47:56;12.97;;;9.50;;
5754;SDS011;2902;42.130;24.732;2024-01-10T13:50:24;11.17;;;10.17;;
5754;SDS011;2902;42.130;24.732;2024-01-10T13:52:51;23.10;;;15.63;;
5754;SDS011;2902;42.130;24.732;2024-01-10T13:55:19;25.07;;;16.47;;
5754;SDS011;2902;42.130;24.732;2024-01-10T13:57:46;22.63;;;16.50;;
5754;SDS011;2902;42.130;24.732;2024-01-10T14:00:13;23.33;;;16.87;;
5754;SDS011;2902;42.130;24.732;2024-01-10T14:02:41;20.23;;;16.03;;
5754;SDS011;2902;42.130;24.732;2024-01-10T14:05:08;22.47;;;16.80;;
5754;SDS011;2902;42.130;24.732;2024-01-10T14:07:36;34.13;;;20.67;;
5754;SDS011;2902;42.130;24.732;2024-01-10T14:10:03;27.43;;;18.33;;
5754;SDS011;2902;42.130;24.732;2024-01-10T14:12:31;22.47;;;16.33;;
5754;SDS011;2902;42.130;24.732;2024-01-10T14:14:58;26.40;;;18.37;;
5754;SDS011;2902;42.130;24.732;2024-01-10T14:17:25;32.50;;;19.77;;
5754;SDS011;2902;42.130;24.732;2024-01-10T14:19:52;28.63;;;18.40;;
5754;SDS011;2902;42.130;24.732;2024-01-10T14:22:19;25.03;;;18.07;;
5754;SDS011;2902;42.130;24.732;2024-01-10T14:24:47;23.60;;;17.30;;
5754;SDS011;2902;42.130;24.732;2024-01-10T14:27:14;24.60;;;16.90;;
5754;SDS011;2902;42.130;24.732;2024-01-10T14:29:41;24.10;;;17.70;;
5754;SDS011;2902;42.130;24.732;2024-01-10T14:32:07;24.20;;;17.23;;
5754;SDS011;2902;42.130;24.732;2024-01-10T14:34:36;25.83;;;16.53;;
5754;SDS011;2902;42.130;24.732;2024-01-10T14:37:05;23.60;;;16.90;;
5754;SDS011;2902;42.130;24.732;2024-01-10T14:39:32;24.50;;;17.57;;
5754;SDS011;2902;42.130;24.732;2024-01-10T14:42:00;30.13;;;18.17;;
5754;SDS011;2902;42.130;24.732;2024-01-10T14:44:28;31.73;;;17.00;;
5754;SDS011;2902;42.130;24.732;2024-01-10T14:46:55;24.00;;;16.13;;